sensor_id;sensor_type;location;lat;lon;timestamp;pressure;altitude;pressure_sealevel;temperature;humidity
47726;BME280;33483;48.294;16.388;2023-02-28T00:00:25;100616.84;;;-0.88;100.00
47726;BME280;33483;48.294;16.388;2023-02-28T00:03:12;100610.72;;;-0.92;100.00
47726;BME280;33483;48.294;16.388;2023-02-28T00:05:40;100610.88;;;-0.99;100.00
47726;BME280;33483;48.294;16.388;2023-02-28T00:08:08;100616.47;;;-1.06;100.00
47726;BME280;33483;48.294;16.388;2023-02-28T00:10:35;100620.41;;;-1.07;100.00
47726;BME280;33483;48.294;16.388;2023-02-28T00:13:04;100622.78;;;-1.09;100.00
47726;BME280;33483;48.294;16.388;2023-02-28T00:15:32;100625.06;;;-1.07;100.00
47726;BME280;33483;48.294;16.388;2023-02-28T00:17:59;100619.19;;;-1.06;100.00
47726;BME280;33483;48.294;16.388;2023-02-28T00:20:27;100626.53;;;-1.03;100.00
47726;BME280;33483;48.294;16.388;2023-02-28T00:22:54;100619.97;;;-1.05;100.00
47726;BME280;33483;48.294;16.388;2023-02-28T00:25:23;100627.28;;;-1.02;100.00
47726;BME280;33483;48.294;16.388;2023-02-28T00:27:50;100623.41;;;-1.01;100.00
47726;BME280;33483;48.294;16.388;2023-02-28T00:30:21;100627.22;;;-0.99;100.00
47726;BME280;33483;48.294;16.388;2023-02-28T00:32:50;100625.69;;;-1.00;100.00
47726;BME280;33483;48.294;16.388;2023-02-28T00:35:18;100625.69;;;-1.00;100.00
47726;BME280;33483;48.294;16.388;2023-02-28T00:37:45;100621.41;;;-1.01;100.00
47726;BME280;33483;48.294;16.388;2023-02-28T00:40:12;100628.59;;;-0.91;100.00
47726;BME280;33483;48.294;16.388;2023-02-28T00:42:39;100631.63;;;-0.89;100.00
47726;BME280;33483;48.294;16.388;2023-02-28T00:45:07;100631.56;;;-0.85;100.00
47726;BME280;33483;48.294;16.388;2023-02-28T00:47:37;100636.25;;;-0.86;100.00
47726;BME280;33483;48.294;16.388;2023-02-28T00:50:04;100626.88;;;-0.85;100.00
47726;BME280;33483;48.294;16.388;2023-02-28T00:52:32;100627.59;;;-0.81;100.00
47726;BME280;33483;48.294;16.388;2023-02-28T00:54:59;100625.22;;;-0.79;100.00
47726;BME280;33483;48.294;16.388;2023-02-28T00:57:26;100630.66;;;-0.79;100.00
47726;BME280;33483;48.294;16.388;2023-02-28T00:59:53;100624.09;;;-0.81;100.00
47726;BME280;33483;48.294;16.388;2023-02-28T01:02:23;100626.38;;;-0.80;100.00
47726;BME280;33483;48.294;16.388;2023-02-28T01:04:53;100623.66;;;-0.80;100.00
47726;BME280;33483;48.294;16.388;2023-02-28T01:07:20;100629.78;;;-0.76;100.00
47726;BME280;33483;48.294;16.388;2023-02-28T01:09:48;100630.91;;;-0.73;100.00
47726;BME280;33483;48.294;16.388;2023-02-28T01:12:15;100628.03;;;-0.66;100.00
47726;BME280;33483;48.294;16.388;2023-02-28T01:14:44;100636.50;;;-0.64;100.00
47726;BME280;33483;48.294;16.388;2023-02-28T01:17:12;100625.88;;;-0.59;100.00
47726;BME280;33483;48.294;16.388;2023-02-28T01:19:39;100629.81;;;-0.60;100.00
47726;BME280;33483;48.294;16.388;2023-02-28T01:22:06;100626.41;;;-0.64;100.00
47726;BME280;33483;48.294;16.388;2023-02-28T01:24:34;100623.25;;;-0.62;100.00
47726;BME280;33483;48.294;16.388;2023-02-28T01:27:01;100620.94;;;-0.64;100.00
47726;BME280;33483;48.294;16.388;2023-02-28T01:29:29;100627.94;;;-0.63;100.00
47726;BME280;33483;48.294;16.388;2023-02-28T01:31:56;100630.25;;;-0.61;100.00
47726;BME280;33483;48.294;16.388;2023-02-28T01:34:24;100629.38;;;-0.58;100.00
47726;BME280;33483;48.294;16.388;2023-02-28T01:36:51;100625.81;;;-0.55;100.00
47726;BME280;33483;48.294;16.388;2023-02-28T01:39:23;100634.47;;;-0.60;100.00
47726;BME280;33483;48.294;16.388;2023-02-28T01:41:50;100637.97;;;-0.60;100.00
47726;BME280;33483;48.294;16.388;2023-02-28T01:47:03;100629.13;;;-0.64;100.00
47726;BME280;33483;48.294;16.388;2023-02-28T01:49:30;100627.16;;;-0.63;100.00
47726;BME280;33483;48.294;16.388;2023-02-28T01:51:58;100630.66;;;-0.63;100.00
47726;BME280;33483;48.294;16.388;2023-02-28T01:54:29;100638.84;;;-0.63;100.00
47726;BME280;33483;48.294;16.388;2023-02-28T01:57:16;100638.84;;;-0.63;100.00
47726;BME280;33483;48.294;16.388;2023-02-28T01:59:47;100634.56;;;-0.64;100.00
47726;BME280;33483;48.294;16.388;2023-02-28T02:02:17;100635.00;;;-0.65;100.00
47726;BME280;33483;48.294;16.388;2023-02-28T02:04:50;100625.31;;;-0.66;100.00
47726;BME280;33483;48.294;16.388;2023-02-28T02:07:20;100627.34;;;-0.70;100.00
47726;BME280;33483;48.294;16.388;2023-02-28T02:09:48;100633.56;;;-0.70;100.00
47726;BME280;33483;48.294;16.388;2023-02-28T02:13:03;100635.16;;;-0.72;100.00
47726;BME280;33483;48.294;16.388;2023-02-28T02:22:50;100642.91;;;-0.71;100.00
47726;BME280;33483;48.294;16.388;2023-02-28T02:41:03;100647.06;;;-0.82;100.00
47726;BME280;33483;48.294;16.388;2023-02-28T02:46:27;100645.59;;;-0.87;100.00
47726;BME280;33483;48.294;16.388;2023-02-28T02:48:57;100645.59;;;-0.87;100.00
47726;BME280;33483;48.294;16.388;2023-02-28T02:51:27;100646.78;;;-0.88;100.00
47726;BME280;33483;48.294;16.388;2023-02-28T02:54:00;100638.88;;;-0.98;100.00
47726;BME280;33483;48.294;16.388;2023-02-28T02:56:29;100639.63;;;-0.98;100.00
47726;BME280;33483;48.294;16.388;2023-02-28T02:59:06;100635.53;;;-1.06;100.00
47726;BME280;33483;48.294;16.388;2023-02-28T03:01:34;100631.72;;;-1.08;100.00
47726;BME280;33483;48.294;16.388;2023-02-28T03:04:05;100634.94;;;-1.13;100.00
47726;BME280;33483;48.294;16.388;2023-02-28T03:06:37;100634.22;;;-1.18;100.00
47726;BME280;33483;48.294;16.388;2023-02-28T03:09:04;100640.09;;;-1.19;100.00
47726;BME280;33483;48.294;16.388;2023-02-28T03:11:32;100637.81;;;-1.21;100.00
47726;BME280;33483;48.294;16.388;2023-02-28T03:16:49;100632.09;;;-1.26;100.00
47726;BME280;33483;48.294;16.388;2023-02-28T03:24:39;100625.66;;;-1.36;100.00
47726;BME280;33483;48.294;16.388;2023-02-28T03:27:11;100631.47;;;-1.34;100.00
47726;BME280;33483;48.294;16.388;2023-02-28T03:29:42;100632.66;;;-1.35;100.00
47726;BME280;33483;48.294;16.388;2023-02-28T03:32:14;100632.66;;;-1.35;100.00
47726;BME280;33483;48.294;16.388;2023-02-28T03:34:55;100626.44;;;-1.35;100.00
47726;BME280;33483;48.294;16.388;2023-02-28T03:37:24;100627.72;;;-1.40;100.00
47726;BME280;33483;48.294;16.388;2023-02-28T03:39:57;100630.44;;;-1.40;100.00
47726;BME280;33483;48.294;16.388;2023-02-28T03:42:28;100620.53;;;-1.50;100.00
47726;BME280;33483;48.294;16.388;2023-02-28T03:45:08;100611.75;;;-1.57;100.00
47726;BME280;33483;48.294;16.388;2023-02-28T03:53:02;100624.94;;;-1.75;100.00
47726;BME280;33483;48.294;16.388;2023-02-28T03:55:33;100627.28;;;-1.77;100.00
47726;BME280;33483;48.294;16.388;2023-02-28T03:58:09;100627.41;;;-1.84;100.00
47726;BME280;33483;48.294;16.388;2023-02-28T04:00:43;100625.19;;;-1.89;100.00
47726;BME280;33483;48.294;16.388;2023-02-28T04:03:13;100619.41;;;-1.91;100.00
47726;BME280;33483;48.294;16.388;2023-02-28T04:05:50;100622.59;;;-1.96;100.00
47726;BME280;33483;48.294;16.388;2023-02-28T04:08:18;100624.69;;;-2.04;100.00
47726;BME280;33483;48.294;16.388;2023-02-28T04:10:47;100620.84;;;-2.06;100.00
47726;BME280;33483;48.294;16.388;2023-02-28T04:13:16;100621.69;;;-2.09;100.00
47726;BME280;33483;48.294;16.388;2023-02-28T04:15:43;100617.06;;;-2.12;100.00
47726;BME280;33483;48.294;16.388;2023-02-28T04:18:10;100621.75;;;-2.13;100.00
47726;BME280;33483;48.294;16.388;2023-02-28T04:20:37;100625.09;;;-2.05;100.00
47726;BME280;33483;48.294;16.388;2023-02-28T04:23:04;100624.75;;;-2.07;100.00
47726;BME280;33483;48.294;16.388;2023-02-28T04:25:31;100630.16;;;-2.07;100.00
47726;BME280;33483;48.294;16.388;2023-02-28T04:28:00;100627.88;;;-2.09;100.00
47726;BME280;33483;48.294;16.388;2023-02-28T04:30:27;100636.84;;;-2.12;100.00
47726;BME280;33483;48.294;16.388;2023-02-28T04:32:54;100631.84;;;-2.13;100.00
47726;BME280;33483;48.294;16.388;2023-02-28T04:35:21;100631.06;;;-2.14;100.00
47726;BME280;33483;48.294;16.388;2023-02-28T04:37:51;100634.56;;;-2.13;100.00
47726;BME280;33483;48.294;16.388;2023-02-28T04:40:17;100642.72;;;-2.13;100.00
47726;BME280;33483;48.294;16.388;2023-02-28T04:42:45;100632.88;;;-2.07;100.00
47726;BME280;33483;48.294;16.388;2023-02-28T04:45:12;100635.97;;;-2.05;100.00
47726;BME280;33483;48.294;16.388;2023-02-28T04:47:39;100637.38;;;-1.97;100.00
47726;BME280;33483;48.294;16.388;2023-02-28T04:50:06;100637.25;;;-1.90;100.00
47726;BME280;33483;48.294;16.388;2023-02-28T04:52:33;100643.03;;;-1.88;100.00
47726;BME280;33483;48.294;16.388;2023-02-28T04:55:01;100637.94;;;-1.86;100.00
47726;BME280;33483;48.294;16.388;2023-02-28T04:57:28;100641.06;;;-1.88;100.00
47726;BME280;33483;48.294;16.388;2023-02-28T04:59:56;100638.78;;;-1.89;100.00
47726;BME280;33483;48.294;16.388;2023-02-28T05:02:26;100644.28;;;-1.93;100.00
47726;BME280;33483;48.294;16.388;2023-02-28T05:04:55;100639.31;;;-1.98;100.00
47726;BME280;33483;48.294;16.388;2023-02-28T05:07:23;100645.25;;;-2.03;100.00
47726;BME280;33483;48.294;16.388;2023-02-28T05:09:50;100630.66;;;-2.12;100.00
47726;BME280;33483;48.294;16.388;2023-02-28T05:12:17;100625.69;;;-2.17;100.00
47726;BME280;33483;48.294;16.388;2023-02-28T05:14:44;100623.88;;;-2.24;100.00
47726;BME280;33483;48.294;16.388;2023-02-28T05:17:11;100631.78;;;-2.33;100.00
47726;BME280;33483;48.294;16.388;2023-02-28T05:19:38;100632.69;;;-2.40;100.00
47726;BME280;33483;48.294;16.388;2023-02-28T05:22:10;100638.66;;;-2.48;100.00
47726;BME280;33483;48.294;16.388;2023-02-28T05:24:41;100634.50;;;-2.56;100.00
47726;BME280;33483;48.294;16.388;2023-02-28T05:27:09;100634.53;;;-2.60;100.00
47726;BME280;33483;48.294;16.388;2023-02-28T05:29:36;100636.56;;;-2.64;100.00
47726;BME280;33483;48.294;16.388;2023-02-28T05:32:11;100637.78;;;-2.68;100.00
47726;BME280;33483;48.294;16.388;2023-02-28T05:34:38;100643.25;;;-2.72;100.00
47726;BME280;33483;48.294;16.388;2023-02-28T05:37:06;100637.78;;;-2.68;100.00
47726;BME280;33483;48.294;16.388;2023-02-28T05:39:33;100642.84;;;-2.70;100.00
47726;BME280;33483;48.294;16.388;2023-02-28T05:42:00;100644.88;;;-2.74;100.00
47726;BME280;33483;48.294;16.388;2023-02-28T05:44:27;100652.22;;;-2.75;100.00
47726;BME280;33483;48.294;16.388;2023-02-28T05:46:55;100659.13;;;-2.70;100.00
47726;BME280;33483;48.294;16.388;2023-02-28T05:49:24;100660.72;;;-2.73;100.00
47726;BME280;33483;48.294;16.388;2023-02-28T05:51:51;100660.72;;;-2.73;100.00
47726;BME280;33483;48.294;16.388;2023-02-28T05:54:18;100656.03;;;-2.69;100.00
47726;BME280;33483;48.294;16.388;2023-02-28T05:56:45;100665.69;;;-2.68;100.00
47726;BME280;33483;48.294;16.388;2023-02-28T05:59:12;100666.06;;;-2.66;100.00
47726;BME280;33483;48.294;16.388;2023-02-28T06:01:43;100666.00;;;-2.62;100.00
47726;BME280;33483;48.294;16.388;2023-02-28T06:04:16;100666.31;;;-2.57;100.00
47726;BME280;33483;48.294;16.388;2023-02-28T06:06:58;100668.56;;;-2.52;100.00
47726;BME280;33483;48.294;16.388;2023-02-28T06:09:24;100670.44;;;-2.49;100.00
47726;BME280;33483;48.294;16.388;2023-02-28T06:11:52;100677.63;;;-2.39;100.00
47726;BME280;33483;48.294;16.388;2023-02-28T06:14:19;100671.97;;;-2.24;100.00
47726;BME280;33483;48.294;16.388;2023-02-28T06:16:47;100676.94;;;-2.19;100.00
47726;BME280;33483;48.294;16.388;2023-02-28T06:19:14;100681.44;;;-2.09;100.00
47726;BME280;33483;48.294;16.388;2023-02-28T06:21:42;100680.13;;;-2.01;100.00
47726;BME280;33483;48.294;16.388;2023-02-28T06:24:09;100685.03;;;-1.93;100.00
47726;BME280;33483;48.294;16.388;2023-02-28T06:26:37;100682.47;;;-1.80;100.00
47726;BME280;33483;48.294;16.388;2023-02-28T06:29:04;100681.63;;;-1.77;100.00
47726;BME280;33483;48.294;16.388;2023-02-28T06:31:31;100679.97;;;-1.71;100.00
47726;BME280;33483;48.294;16.388;2023-02-28T06:33:59;100682.91;;;-1.62;100.00
47726;BME280;33483;48.294;16.388;2023-02-28T06:36:26;100688.22;;;-1.55;100.00
47726;BME280;33483;48.294;16.388;2023-02-28T06:38:54;100683.41;;;-1.48;100.00
47726;BME280;33483;48.294;16.388;2023-02-28T06:41:24;100690.03;;;-1.49;100.00
47726;BME280;33483;48.294;16.388;2023-02-28T06:43:51;100693.34;;;-1.41;100.00
47726;BME280;33483;48.294;16.388;2023-02-28T06:46:20;100702.09;;;-1.30;100.00
47726;BME280;33483;48.294;16.388;2023-02-28T06:48:47;100713.16;;;-1.21;100.00
47726;BME280;33483;48.294;16.388;2023-02-28T06:51:15;100704.72;;;-1.07;100.00
47726;BME280;33483;48.294;16.388;2023-02-28T06:53:46;100710.38;;;-0.98;100.00
47726;BME280;33483;48.294;16.388;2023-02-28T06:56:14;100709.38;;;-0.88;100.00
47726;BME280;33483;48.294;16.388;2023-02-28T06:58:41;100711.38;;;-0.72;100.00
47726;BME280;33483;48.294;16.388;2023-02-28T07:01:09;100719.09;;;-0.71;100.00
47726;BME280;33483;48.294;16.388;2023-02-28T07:03:36;100714.88;;;-0.56;100.00
47726;BME280;33483;48.294;16.388;2023-02-28T07:06:06;100719.25;;;-0.42;100.00
47726;BME280;33483;48.294;16.388;2023-02-28T07:08:33;100722.22;;;-0.37;100.00
47726;BME280;33483;48.294;16.388;2023-02-28T07:11:01;100717.44;;;-0.33;100.00
47726;BME280;33483;48.294;16.388;2023-02-28T07:13:28;100719.66;;;-0.28;100.00
47726;BME280;33483;48.294;16.388;2023-02-28T07:15:56;100709.72;;;-0.18;100.00
47726;BME280;33483;48.294;16.388;2023-02-28T07:18:26;100721.13;;;-0.07;100.00
47726;BME280;33483;48.294;16.388;2023-02-28T07:20:53;100720.34;;;0.09;100.00
47726;BME280;33483;48.294;16.388;2023-02-28T07:23:20;100722.75;;;0.07;100.00
47726;BME280;33483;48.294;16.388;2023-02-28T07:25:49;100725.81;;;0.09;100.00
47726;BME280;33483;48.294;16.388;2023-02-28T07:28:16;100726.81;;;-0.02;100.00
47726;BME280;33483;48.294;16.388;2023-02-28T07:30:43;100737.97;;;-0.12;100.00
47726;BME280;33483;48.294;16.388;2023-02-28T07:33:13;100729.72;;;-0.09;100.00
47726;BME280;33483;48.294;16.388;2023-02-28T07:35:41;100741.38;;;0.08;100.00
47726;BME280;33483;48.294;16.388;2023-02-28T07:38:08;100732.41;;;0.24;100.00
47726;BME280;33483;48.294;16.388;2023-02-28T07:40:35;100738.22;;;0.10;100.00
47726;BME280;33483;48.294;16.388;2023-02-28T07:43:03;100734.56;;;0.16;100.00
47726;BME280;33483;48.294;16.388;2023-02-28T07:45:30;100746.66;;;0.31;100.00
47726;BME280;33483;48.294;16.388;2023-02-28T07:48:01;100750.81;;;0.36;100.00
47726;BME280;33483;48.294;16.388;2023-02-28T07:50:28;100752.38;;;0.49;100.00
47726;BME280;33483;48.294;16.388;2023-02-28T07:52:58;100740.91;;;0.42;100.00
47726;BME280;33483;48.294;16.388;2023-02-28T07:55:25;100749.38;;;0.60;100.00
47726;BME280;33483;48.294;16.388;2023-02-28T07:57:52;100748.91;;;0.77;100.00
47726;BME280;33483;48.294;16.388;2023-02-28T08:00:34;100747.88;;;1.00;100.00
47726;BME280;33483;48.294;16.388;2023-02-28T08:03:02;100746.50;;;1.21;100.00
47726;BME280;33483;48.294;16.388;2023-02-28T08:05:31;100752.28;;;1.23;100.00
47726;BME280;33483;48.294;16.388;2023-02-28T08:08:01;100747.97;;;1.38;100.00
47726;BME280;33483;48.294;16.388;2023-02-28T08:10:27;100752.22;;;1.51;100.00
47726;BME280;33483;48.294;16.388;2023-02-28T08:12:55;100753.31;;;1.41;100.00
47726;BME280;33483;48.294;16.388;2023-02-28T08:15:22;100759.88;;;1.56;100.00
47726;BME280;33483;48.294;16.388;2023-02-28T08:17:49;100756.59;;;1.86;100.00
47726;BME280;33483;48.294;16.388;2023-02-28T08:20:16;100755.06;;;1.73;100.00
47726;BME280;33483;48.294;16.388;2023-02-28T08:22:43;100758.00;;;2.16;100.00
47726;BME280;33483;48.294;16.388;2023-02-28T08:25:11;100759.88;;;2.75;100.00
47726;BME280;33483;48.294;16.388;2023-02-28T08:27:39;100764.06;;;3.31;98.45
47726;BME280;33483;48.294;16.388;2023-02-28T08:30:06;100765.94;;;3.74;90.22
47726;BME280;33483;48.294;16.388;2023-02-28T08:32:33;100767.16;;;3.73;87.58
47726;BME280;33483;48.294;16.388;2023-02-28T08:35:00;100769.63;;;3.80;84.15
47726;BME280;33483;48.294;16.388;2023-02-28T08:37:29;100769.81;;;3.95;85.63
47726;BME280;33483;48.294;16.388;2023-02-28T08:39:56;100774.13;;;4.05;82.47
47726;BME280;33483;48.294;16.388;2023-02-28T08:42:23;100778.84;;;4.13;86.75
47726;BME280;33483;48.294;16.388;2023-02-28T08:44:50;100779.84;;;4.28;85.44
47726;BME280;33483;48.294;16.388;2023-02-28T08:47:18;100775.88;;;4.38;82.34
47726;BME280;33483;48.294;16.388;2023-02-28T08:49:45;100778.34;;;4.54;80.80
47726;BME280;33483;48.294;16.388;2023-02-28T08:52:12;100785.63;;;4.39;82.65
47726;BME280;33483;48.294;16.388;2023-02-28T08:54:39;100789.56;;;4.29;81.75
47726;BME280;33483;48.294;16.388;2023-02-28T08:57:06;100780.06;;;4.03;83.61
47726;BME280;33483;48.294;16.388;2023-02-28T08:59:33;100784.56;;;4.55;83.58
47726;BME280;33483;48.294;16.388;2023-02-28T09:02:01;100781.38;;;4.66;84.12
47726;BME280;33483;48.294;16.388;2023-02-28T09:04:30;100792.38;;;4.84;83.45
47726;BME280;33483;48.294;16.388;2023-02-28T09:06:58;100790.81;;;4.46;80.33
47726;BME280;33483;48.294;16.388;2023-02-28T09:09:24;100785.38;;;4.83;83.76
47726;BME280;33483;48.294;16.388;2023-02-28T09:11:54;100785.38;;;4.83;81.92
47726;BME280;33483;48.294;16.388;2023-02-28T09:14:21;100790.09;;;4.82;80.48
47726;BME280;33483;48.294;16.388;2023-02-28T09:16:49;100792.66;;;4.58;81.22
47726;BME280;33483;48.294;16.388;2023-02-28T09:19:16;100791.25;;;4.36;82.32
47726;BME280;33483;48.294;16.388;2023-02-28T09:21:43;100778.81;;;4.53;82.04
47726;BME280;33483;48.294;16.388;2023-02-28T09:24:10;100786.25;;;4.52;84.18
47726;BME280;33483;48.294;16.388;2023-02-28T09:26:40;100783.22;;;4.69;84.33
47726;BME280;33483;48.294;16.388;2023-02-28T09:29:17;100780.94;;;4.94;82.63
47726;BME280;33483;48.294;16.388;2023-02-28T09:31:44;100790.38;;;5.11;78.40
47726;BME280;33483;48.294;16.388;2023-02-28T09:34:11;100783.06;;;5.17;79.65
47726;BME280;33483;48.294;16.388;2023-02-28T09:36:39;100786.28;;;5.16;78.81
47726;BME280;33483;48.294;16.388;2023-02-28T09:39:12;100782.84;;;5.39;80.89
47726;BME280;33483;48.294;16.388;2023-02-28T09:41:41;100788.41;;;5.21;77.51
47726;BME280;33483;48.294;16.388;2023-02-28T09:44:17;100784.72;;;5.15;78.87
47726;BME280;33483;48.294;16.388;2023-02-28T09:46:46;100782.59;;;5.10;76.74
47726;BME280;33483;48.294;16.388;2023-02-28T09:49:16;100792.03;;;5.27;80.61
47726;BME280;33483;48.294;16.388;2023-02-28T09:54:14;100789.75;;;5.16;77.65
47726;BME280;33483;48.294;16.388;2023-02-28T09:56:50;100792.78;;;5.45;75.21
47726;BME280;33483;48.294;16.388;2023-02-28T10:02:15;100798.00;;;5.34;78.86
47726;BME280;33483;48.294;16.388;2023-02-28T10:04:47;100796.03;;;5.26;78.11
47726;BME280;33483;48.294;16.388;2023-02-28T10:09:53;100787.22;;;5.63;77.37
47726;BME280;33483;48.294;16.388;2023-02-28T10:12:21;100789.44;;;5.92;74.74
47726;BME280;33483;48.294;16.388;2023-02-28T10:14:49;100789.63;;;6.12;75.09
47726;BME280;33483;48.294;16.388;2023-02-28T10:17:26;100789.78;;;6.09;71.52
47726;BME280;33483;48.294;16.388;2023-02-28T10:20:12;100801.81;;;5.88;72.07
47726;BME280;33483;48.294;16.388;2023-02-28T10:23:07;100794.75;;;5.54;71.95
47726;BME280;33483;48.294;16.388;2023-02-28T10:25:37;100783.66;;;5.72;73.23
47726;BME280;33483;48.294;16.388;2023-02-28T10:30:36;100789.16;;;5.72;76.15
47726;BME280;33483;48.294;16.388;2023-02-28T10:33:03;100788.09;;;5.79;73.75
47726;BME280;33483;48.294;16.388;2023-02-28T10:35:30;100786.97;;;6.27;73.10
47726;BME280;33483;48.294;16.388;2023-02-28T10:38:00;100787.44;;;5.93;70.82
47726;BME280;33483;48.294;16.388;2023-02-28T10:40:32;100781.00;;;5.45;75.63
47726;BME280;33483;48.294;16.388;2023-02-28T10:43:01;100773.94;;;5.62;78.30
47726;BME280;33483;48.294;16.388;2023-02-28T10:45:29;100776.41;;;5.51;75.93
47726;BME280;33483;48.294;16.388;2023-02-28T10:48:03;100778.59;;;5.29;76.72
47726;BME280;33483;48.294;16.388;2023-02-28T10:50:50;100773.16;;;4.66;79.20
47726;BME280;33483;48.294;16.388;2023-02-28T11:01:23;100761.72;;;4.67;81.44
47726;BME280;33483;48.294;16.388;2023-02-28T11:03:51;100756.22;;;4.58;80.86
47726;BME280;33483;48.294;16.388;2023-02-28T11:06:19;100747.97;;;4.40;81.08
47726;BME280;33483;48.294;16.388;2023-02-28T11:08:49;100755.78;;;4.59;83.03
47726;BME280;33483;48.294;16.388;2023-02-28T11:11:17;100747.06;;;4.61;79.47
47726;BME280;33483;48.294;16.388;2023-02-28T11:13:45;100742.03;;;4.87;82.30
47726;BME280;33483;48.294;16.388;2023-02-28T11:16:13;100744.59;;;5.08;77.72
47726;BME280;33483;48.294;16.388;2023-02-28T11:18:53;100738.13;;;5.29;77.10
47726;BME280;33483;48.294;16.388;2023-02-28T11:21:25;100736.09;;;5.48;76.33
47726;BME280;33483;48.294;16.388;2023-02-28T11:26:35;100726.31;;;5.56;74.36
47726;BME280;33483;48.294;16.388;2023-02-28T11:29:05;100728.16;;;5.50;71.26
47726;BME280;33483;48.294;16.388;2023-02-28T11:31:38;100715.72;;;5.63;70.82
47726;BME280;33483;48.294;16.388;2023-02-28T11:34:22;100721.19;;;5.31;71.22
47726;BME280;33483;48.294;16.388;2023-02-28T11:36:49;100715.53;;;5.67;70.77
47726;BME280;33483;48.294;16.388;2023-02-28T11:39:16;100718.59;;;5.69;70.33
47726;BME280;33483;48.294;16.388;2023-02-28T11:41:57;100708.69;;;5.62;74.20
47726;BME280;33483;48.294;16.388;2023-02-28T11:47:04;100703.69;;;5.52;72.12
47726;BME280;33483;48.294;16.388;2023-02-28T11:49:42;100707.84;;;5.89;71.24
47726;BME280;33483;48.294;16.388;2023-02-28T12:05:43;100696.84;;;5.80;68.63
47726;BME280;33483;48.294;16.388;2023-02-28T12:08:20;100700.66;;;5.50;71.29
47726;BME280;33483;48.294;16.388;2023-02-28T12:11:02;100694.44;;;5.40;71.22
47726;BME280;33483;48.294;16.388;2023-02-28T12:13:45;100679.28;;;5.45;70.74
47726;BME280;33483;48.294;16.388;2023-02-28T12:16:26;100679.09;;;5.57;71.51
47726;BME280;33483;48.294;16.388;2023-02-28T12:24:03;100675.09;;;5.91;67.93
47726;BME280;33483;48.294;16.388;2023-02-28T12:26:46;100671.78;;;5.87;66.09
47726;BME280;33483;48.294;16.388;2023-02-28T12:31:47;100675.25;;;5.55;69.07
47726;BME280;33483;48.294;16.388;2023-02-28T12:34:18;100667.56;;;5.68;69.00
47726;BME280;33483;48.294;16.388;2023-02-28T12:36:47;100667.31;;;5.90;68.96
47726;BME280;33483;48.294;16.388;2023-02-28T12:39:21;100665.75;;;5.65;69.90
47726;BME280;33483;48.294;16.388;2023-02-28T12:42:00;100660.13;;;5.59;69.59
47726;BME280;33483;48.294;16.388;2023-02-28T12:46:58;100657.25;;;5.54;70.33
47726;BME280;33483;48.294;16.388;2023-02-28T12:49:38;100657.38;;;5.59;69.12
47726;BME280;33483;48.294;16.388;2023-02-28T12:52:06;100661.25;;;5.86;69.92
47726;BME280;33483;48.294;16.388;2023-02-28T12:54:48;100666.47;;;5.74;68.78
47726;BME280;33483;48.294;16.388;2023-02-28T12:57:22;100650.81;;;5.57;69.70
47726;BME280;33483;48.294;16.388;2023-02-28T12:59:53;100652.63;;;5.60;70.76
47726;BME280;33483;48.294;16.388;2023-02-28T13:10:22;100645.38;;;6.04;67.01
47726;BME280;33483;48.294;16.388;2023-02-28T13:12:53;100645.78;;;6.26;66.52
47726;BME280;33483;48.294;16.388;2023-02-28T13:15:27;100639.91;;;6.19;66.09
47726;BME280;33483;48.294;16.388;2023-02-28T13:18:00;100642.50;;;5.99;65.66
47726;BME280;33483;48.294;16.388;2023-02-28T13:20:36;100644.72;;;6.09;64.35
47726;BME280;33483;48.294;16.388;2023-02-28T13:26:01;100647.22;;;6.36;67.36
47726;BME280;33483;48.294;16.388;2023-02-28T13:31:15;100637.81;;;6.28;65.45
47726;BME280;33483;48.294;16.388;2023-02-28T13:38:47;100642.44;;;6.60;65.29
47726;BME280;33483;48.294;16.388;2023-02-28T13:46:35;100641.09;;;6.56;65.27
47726;BME280;33483;48.294;16.388;2023-02-28T13:51:48;100641.28;;;6.38;62.86
47726;BME280;33483;48.294;16.388;2023-02-28T13:57:17;100634.94;;;5.85;64.03
47726;BME280;33483;48.294;16.388;2023-02-28T14:05:28;100640.16;;;5.83;63.63
47726;BME280;33483;48.294;16.388;2023-02-28T14:08:18;100633.88;;;5.82;65.68
47726;BME280;33483;48.294;16.388;2023-02-28T14:10:49;100635.13;;;5.72;61.46
47726;BME280;33483;48.294;16.388;2023-02-28T14:20:01;100624.25;;;5.78;63.83
47726;BME280;33483;48.294;16.388;2023-02-28T14:25:37;100621.34;;;5.57;65.44
47726;BME280;33483;48.294;16.388;2023-02-28T14:31:29;100617.47;;;5.64;64.31
47726;BME280;33483;48.294;16.388;2023-02-28T14:37:04;100624.31;;;5.45;65.53
47726;BME280;33483;48.294;16.388;2023-02-28T14:39:31;100617.75;;;5.42;64.68
47726;BME280;33483;48.294;16.388;2023-02-28T14:41:59;100620.38;;;5.37;66.02
47726;BME280;33483;48.294;16.388;2023-02-28T14:44:31;100609.72;;;5.30;67.39
47726;BME280;33483;48.294;16.388;2023-02-28T14:47:02;100610.97;;;5.20;65.76
47726;BME280;33483;48.294;16.388;2023-02-28T14:49:34;100609.81;;;5.12;67.61
47726;BME280;33483;48.294;16.388;2023-02-28T14:52:05;100615.66;;;4.96;68.43
47726;BME280;33483;48.294;16.388;2023-02-28T14:54:35;100608.38;;;4.84;69.22
47726;BME280;33483;48.294;16.388;2023-02-28T14:57:03;100613.72;;;4.78;69.23
47726;BME280;33483;48.294;16.388;2023-02-28T14:59:34;100613.41;;;4.76;70.54
47726;BME280;33483;48.294;16.388;2023-02-28T15:04:51;100602.91;;;4.75;70.02
47726;BME280;33483;48.294;16.388;2023-02-28T15:07:19;100602.75;;;4.78;69.96
47726;BME280;33483;48.294;16.388;2023-02-28T15:09:46;100608.22;;;4.78;69.63
47726;BME280;33483;48.294;16.388;2023-02-28T15:12:14;100614.50;;;4.79;69.39
47726;BME280;33483;48.294;16.388;2023-02-28T15:14:42;100627.31;;;4.73;67.49